Ardenvoir, WA

10:01 AM PST on January 25, 2015 (GMT -0800)
Entiat Valley | Change Station
CLOSE
Current Station
Personal Weather Station
Location: Entiat, WA
Elevation: 1050 ft
Nearby Weather Stations

Elev 1050 ft 47.70 °N, 120.33 °W | Updated 5 seconds ago

Fog
Fog
34.5 °F
Feels Like 34 °F
N
0.0
Wind Variable Wind from NW
Gusts 0.0 mph

Today
High -- | Low -- °F
--% Chance of Precip.
Yesterday
High -- | Low -- °F
Precip. -- in
7:36 AM 4:51 PM
Waxing Crescent, 34% visible
Pressure 30.30 in
Visibility 0.5 miles
Clouds
Windchill 34 °F
Dew Point 32 °F
Humidity 90%
Rainfall 0.00 in
Snow Depth Not available.
UV Not available.
Pollen 4.00 out of 12
Air Quality Not available.
Flu Activity Not available.
METAR KEAT 251755Z AUTO 00000KT 1/2SM FG VV002 02/01 A3027 RMK AO2 SLP261 T00170011 10017 20017 53008 $

More Conditions Fewer Conditions

Pressure 30.30 in
Visibility 0.5 miles
Clouds
Windchill 34 °F
Dew Point 32 °F
Humidity 90%
Rainfall 0.00 in
Snow Depth Not available.
UV Not available.
Pollen 4.00 out of 12
Air Quality Not available.
Flu Activity Not available.
METAR KEAT 251755Z AUTO 00000KT 1/2SM FG VV002 02/01 A3027 RMK AO2 SLP261 T00170011 10017 20017 53008 $

More Conditions Fewer Conditions

Nowcast | as of 8:15 am PST on January 25, 2015

Widespread low clouds and patchy dense fog will continue to shroud most of the valleys near the Cascades and into the Wenatchee area. Motorists can expect to encounter sporadic visibilities of a quarter mile or less in locations such as Leavenworth...Winthrop...plain...Cashmere and across the higher elevations in the Wenatchee area. The clouds will persist through much of the day while the foggy conditions will slowly improve through the morning.

×

10-Day Weather Forecast

Almanac

Astronomy

Jan. 25, 2015 Rise Set
Actual Time
Civil Twilight
Nautical Twilight
Astronomical Twilight
Moon
Length of Visible Light
Length of Day
Tomorrow will be .
, % of the Moon is Illuminated

Today's Extremes

State Highs State Lows

Community

WunderPhotos

Upload Photos

1,790,008 photos uploaded!

WunderBlogs® & News

Nearby

Air Quality

  Air Quality AQ Index Pollutant
Not available.

Snow Depth

Station Depth Elevation

Earthquake Activity

City Distance Mag. Time & Date
Minimum magnitude displayed is 2.5.

Coastal Water Temperatures

Place Temperature

Nearby Weather Stations